New Danville, Pennsylvania
Current Conditions -  °F | °C
As of 7:53 AM on Wednesday 26 Nov 2014 (Local Time) from KLNS Reporting Station
Moderate Rain Moderate Rain  
Wind Chill: 30°   Ceiling: 2900
Heat Index: 37°   Visibility: 4mi
Dew Point: 33°   Wind: 10mph
Humidity: 86%   Direction: 50°NE
Pressure: 30.1"   Gusts: 20mph
Location:  40.0115°N, 76.3553°W
Report Text: KLNS 261253Z 05009G17KT 4SM RA BR OVC029 03/01 A3010 RMK AO2 SLP195 P0008 T00280006
Loading
Personal Weather Stations






























Interactive Weather Map New forecast layout! Learn more

10-Day Weather Forecast

Advertisements
Track Severe Weather on mobile